sensor_id;sensor_type;location;lat;lon;timestamp;pressure;altitude;pressure_sealevel;temperature;humidity
77626;BME280;66794;43.764;10.436;2023-04-20T00:00:06;101477.50;;;11.39;100.00
77626;BME280;66794;43.764;10.436;2023-04-20T00:02:35;101471.41;;;11.37;100.00
77626;BME280;66794;43.764;10.436;2023-04-20T00:05:00;101476.69;;;11.13;100.00
77626;BME280;66794;43.764;10.436;2023-04-20T00:07:26;101476.91;;;11.19;100.00
77626;BME280;66794;43.764;10.436;2023-04-20T00:09:53;101474.06;;;11.29;100.00
77626;BME280;66794;43.764;10.436;2023-04-20T00:12:18;101473.91;;;11.30;100.00
77626;BME280;66794;43.764;10.436;2023-04-20T00:14:44;101474.41;;;11.26;100.00
77626;BME280;66794;43.764;10.436;2023-04-20T00:17:12;101470.69;;;11.35;100.00
77626;BME280;66794;43.764;10.436;2023-04-20T00:19:37;101465.69;;;11.56;100.00
77626;BME280;66794;43.764;10.436;2023-04-20T00:22:03;101466.16;;;11.52;100.00
77626;BME280;66794;43.764;10.436;2023-04-20T00:24:28;101461.69;;;11.26;100.00
77626;BME280;66794;43.764;10.436;2023-04-20T00:26:53;101469.94;;;11.17;100.00
77626;BME280;66794;43.764;10.436;2023-04-20T00:29:19;101464.63;;;10.99;100.00
77626;BME280;66794;43.764;10.436;2023-04-20T00:31:44;101460.91;;;11.00;100.00
77626;BME280;66794;43.764;10.436;2023-04-20T00:34:10;101459.50;;;10.88;100.00
77626;BME280;66794;43.764;10.436;2023-04-20T00:36:35;101454.81;;;11.06;100.00
77626;BME280;66794;43.764;10.436;2023-04-20T00:39:00;101455.22;;;11.19;100.00
77626;BME280;66794;43.764;10.436;2023-04-20T00:41:26;101448.22;;;11.09;100.00
77626;BME280;66794;43.764;10.436;2023-04-20T00:43:52;101450.97;;;11.17;100.00
77626;BME280;66794;43.764;10.436;2023-04-20T00:46:18;101447.91;;;11.12;100.00
77626;BME280;66794;43.764;10.436;2023-04-20T00:48:43;101451.88;;;11.25;100.00
77626;BME280;66794;43.764;10.436;2023-04-20T00:51:09;101448.94;;;11.19;100.00
77626;BME280;66794;43.764;10.436;2023-04-20T00:53:34;101445.28;;;10.94;100.00
77626;BME280;66794;43.764;10.436;2023-04-20T00:56:00;101435.28;;;10.34;100.00
77626;BME280;66794;43.764;10.436;2023-04-20T00:58:25;101432.03;;;10.57;100.00
77626;BME280;66794;43.764;10.436;2023-04-20T01:00:51;101428.94;;;10.77;100.00
77626;BME280;66794;43.764;10.436;2023-04-20T01:03:16;101433.44;;;11.03;100.00
77626;BME280;66794;43.764;10.436;2023-04-20T01:05:41;101429.13;;;11.18;100.00
77626;BME280;66794;43.764;10.436;2023-04-20T01:08:07;101419.34;;;11.25;100.00
77626;BME280;66794;43.764;10.436;2023-04-20T01:10:32;101417.66;;;11.32;100.00
77626;BME280;66794;43.764;10.436;2023-04-20T01:12:57;101419.47;;;11.24;100.00
77626;BME280;66794;43.764;10.436;2023-04-20T01:15:23;101420.72;;;11.46;100.00
77626;BME280;66794;43.764;10.436;2023-04-20T01:17:48;101420.84;;;11.28;100.00
77626;BME280;66794;43.764;10.436;2023-04-20T01:20:13;101415.53;;;11.10;100.00
77626;BME280;66794;43.764;10.436;2023-04-20T01:22:45;101414.41;;;11.21;100.00
77626;BME280;66794;43.764;10.436;2023-04-20T01:25:11;101409.16;;;11.27;100.00
77626;BME280;66794;43.764;10.436;2023-04-20T01:27:36;101421.25;;;10.99;100.00
77626;BME280;66794;43.764;10.436;2023-04-20T01:30:02;101411.91;;;10.93;100.00
77626;BME280;66794;43.764;10.436;2023-04-20T01:32:27;101412.28;;;10.98;100.00
77626;BME280;66794;43.764;10.436;2023-04-20T01:34:53;101405.56;;;11.19;100.00
77626;BME280;66794;43.764;10.436;2023-04-20T01:37:18;101408.44;;;11.09;100.00
77626;BME280;66794;43.764;10.436;2023-04-20T01:39:44;101410.28;;;10.74;100.00
77626;BME280;66794;43.764;10.436;2023-04-20T01:42:09;101406.91;;;10.72;100.00
77626;BME280;66794;43.764;10.436;2023-04-20T01:44:35;101408.31;;;10.85;100.00
77626;BME280;66794;43.764;10.436;2023-04-20T01:47:00;101411.75;;;10.95;100.00
77626;BME280;66794;43.764;10.436;2023-04-20T01:49:25;101407.25;;;11.12;100.00
77626;BME280;66794;43.764;10.436;2023-04-20T01:51:51;101405.72;;;11.09;100.00
77626;BME280;66794;43.764;10.436;2023-04-20T01:54:16;101400.84;;;11.21;100.00
77626;BME280;66794;43.764;10.436;2023-04-20T01:56:41;101391.69;;;11.30;100.00
77626;BME280;66794;43.764;10.436;2023-04-20T01:59:07;101394.22;;;11.15;100.00
77626;BME280;66794;43.764;10.436;2023-04-20T02:01:32;101396.28;;;10.87;100.00
77626;BME280;66794;43.764;10.436;2023-04-20T02:03:57;101392.56;;;10.54;100.00
77626;BME280;66794;43.764;10.436;2023-04-20T02:06:22;101392.53;;;10.46;100.00
77626;BME280;66794;43.764;10.436;2023-04-20T02:08:48;101384.19;;;10.39;100.00
77626;BME280;66794;43.764;10.436;2023-04-20T02:11:13;101392.34;;;10.04;100.00
77626;BME280;66794;43.764;10.436;2023-04-20T02:13:38;101389.88;;;10.10;100.00
77626;BME280;66794;43.764;10.436;2023-04-20T02:16:04;101387.00;;;10.30;100.00
77626;BME280;66794;43.764;10.436;2023-04-20T02:18:29;101381.31;;;10.41;100.00
77626;BME280;66794;43.764;10.436;2023-04-20T02:20:57;101380.88;;;10.53;100.00
77626;BME280;66794;43.764;10.436;2023-04-20T02:23:22;101389.84;;;10.54;100.00
77626;BME280;66794;43.764;10.436;2023-04-20T02:25:47;101382.97;;;10.34;100.00
77626;BME280;66794;43.764;10.436;2023-04-20T02:28:13;101388.03;;;9.93;100.00
77626;BME280;66794;43.764;10.436;2023-04-20T02:30:38;101386.31;;;10.10;100.00
77626;BME280;66794;43.764;10.436;2023-04-20T02:33:03;101385.03;;;10.22;100.00
77626;BME280;66794;43.764;10.436;2023-04-20T02:35:29;101382.84;;;10.17;100.00
77626;BME280;66794;43.764;10.436;2023-04-20T02:37:54;101379.34;;;10.25;100.00
77626;BME280;66794;43.764;10.436;2023-04-20T02:40:19;101383.75;;;9.64;100.00
77626;BME280;66794;43.764;10.436;2023-04-20T02:42:45;101372.75;;;9.84;100.00
77626;BME280;66794;43.764;10.436;2023-04-20T02:45:10;101369.47;;;9.98;100.00
77626;BME280;66794;43.764;10.436;2023-04-20T02:47:35;101378.94;;;10.20;100.00
77626;BME280;66794;43.764;10.436;2023-04-20T02:50:01;101379.09;;;9.92;100.00
77626;BME280;66794;43.764;10.436;2023-04-20T02:52:26;101375.50;;;10.10;100.00
77626;BME280;66794;43.764;10.436;2023-04-20T02:54:51;101376.75;;;9.97;100.00
77626;BME280;66794;43.764;10.436;2023-04-20T02:57:17;101376.06;;;10.21;100.00
77626;BME280;66794;43.764;10.436;2023-04-20T02:59:42;101377.88;;;10.31;100.00
77626;BME280;66794;43.764;10.436;2023-04-20T03:02:07;101378.75;;;10.13;100.00
77626;BME280;66794;43.764;10.436;2023-04-20T03:04:32;101377.91;;;10.13;100.00
77626;BME280;66794;43.764;10.436;2023-04-20T03:06:58;101380.31;;;9.98;100.00
77626;BME280;66794;43.764;10.436;2023-04-20T03:09:24;101375.69;;;9.90;100.00
77626;BME280;66794;43.764;10.436;2023-04-20T03:11:49;101371.75;;;9.85;100.00
77626;BME280;66794;43.764;10.436;2023-04-20T03:14:15;101381.78;;;9.92;100.00
77626;BME280;66794;43.764;10.436;2023-04-20T03:16:40;101389.84;;;9.66;100.00
77626;BME280;66794;43.764;10.436;2023-04-20T03:19:06;101387.97;;;9.49;100.00
77626;BME280;66794;43.764;10.436;2023-04-20T03:21:31;101385.16;;;9.68;100.00
77626;BME280;66794;43.764;10.436;2023-04-20T03:23:57;101383.28;;;9.69;100.00
77626;BME280;66794;43.764;10.436;2023-04-20T03:26:22;101383.22;;;9.79;100.00
77626;BME280;66794;43.764;10.436;2023-04-20T03:28:48;101382.97;;;9.90;100.00
77626;BME280;66794;43.764;10.436;2023-04-20T03:31:14;101384.91;;;10.06;100.00
77626;BME280;66794;43.764;10.436;2023-04-20T03:33:40;101374.34;;;10.12;100.00
77626;BME280;66794;43.764;10.436;2023-04-20T03:36:05;101363.66;;;10.29;100.00
77626;BME280;66794;43.764;10.436;2023-04-20T03:38:31;101364.97;;;10.24;100.00
77626;BME280;66794;43.764;10.436;2023-04-20T03:40:56;101367.97;;;10.39;100.00
77626;BME280;66794;43.764;10.436;2023-04-20T03:43:21;101369.44;;;9.90;100.00
77626;BME280;66794;43.764;10.436;2023-04-20T03:45:46;101372.38;;;9.79;100.00
77626;BME280;66794;43.764;10.436;2023-04-20T03:48:13;101369.53;;;9.62;100.00
77626;BME280;66794;43.764;10.436;2023-04-20T03:50:38;101368.38;;;9.47;100.00
77626;BME280;66794;43.764;10.436;2023-04-20T03:53:03;101366.34;;;9.49;100.00
77626;BME280;66794;43.764;10.436;2023-04-20T03:55:29;101372.00;;;9.56;100.00
77626;BME280;66794;43.764;10.436;2023-04-20T03:57:54;101376.94;;;9.42;100.00
77626;BME280;66794;43.764;10.436;2023-04-20T04:00:19;101370.13;;;9.20;100.00
77626;BME280;66794;43.764;10.436;2023-04-20T04:02:45;101373.53;;;9.40;100.00
77626;BME280;66794;43.764;10.436;2023-04-20T04:05:10;101382.34;;;9.25;100.00
77626;BME280;66794;43.764;10.436;2023-04-20T04:07:36;101340.97;;;8.96;100.00
77626;BME280;66794;43.764;10.436;2023-04-20T04:10:01;101394.28;;;8.94;100.00
77626;BME280;66794;43.764;10.436;2023-04-20T04:12:28;101388.22;;;8.92;100.00
77626;BME280;66794;43.764;10.436;2023-04-20T04:14:54;101397.25;;;9.01;100.00
77626;BME280;66794;43.764;10.436;2023-04-20T04:17:19;101397.19;;;9.11;100.00
77626;BME280;66794;43.764;10.436;2023-04-20T04:19:45;101397.41;;;9.45;100.00
77626;BME280;66794;43.764;10.436;2023-04-20T04:22:10;101400.66;;;9.48;100.00
77626;BME280;66794;43.764;10.436;2023-04-20T04:24:35;101396.72;;;9.43;100.00
77626;BME280;66794;43.764;10.436;2023-04-20T04:27:03;101398.50;;;9.52;100.00
77626;BME280;66794;43.764;10.436;2023-04-20T04:29:29;101401.66;;;9.65;100.00
77626;BME280;66794;43.764;10.436;2023-04-20T04:31:54;101407.00;;;9.57;100.00
77626;BME280;66794;43.764;10.436;2023-04-20T04:34:20;101402.28;;;9.59;100.00
77626;BME280;66794;43.764;10.436;2023-04-20T04:36:45;101407.38;;;9.44;100.00
77626;BME280;66794;43.764;10.436;2023-04-20T04:39:10;101402.00;;;9.35;100.00
77626;BME280;66794;43.764;10.436;2023-04-20T04:41:36;101406.66;;;9.25;100.00
77626;BME280;66794;43.764;10.436;2023-04-20T04:44:02;101404.13;;;9.41;100.00
77626;BME280;66794;43.764;10.436;2023-04-20T04:46:27;101409.22;;;9.44;100.00
77626;BME280;66794;43.764;10.436;2023-04-20T04:48:53;101415.03;;;9.49;100.00
77626;BME280;66794;43.764;10.436;2023-04-20T04:51:18;101407.09;;;9.20;100.00
77626;BME280;66794;43.764;10.436;2023-04-20T04:53:43;101417.19;;;9.18;100.00
77626;BME280;66794;43.764;10.436;2023-04-20T04:56:10;101408.44;;;9.06;100.00
77626;BME280;66794;43.764;10.436;2023-04-20T04:58:37;101410.50;;;8.94;100.00
77626;BME280;66794;43.764;10.436;2023-04-20T05:01:02;101420.78;;;8.54;100.00
77626;BME280;66794;43.764;10.436;2023-04-20T05:03:28;101418.44;;;8.68;100.00
77626;BME280;66794;43.764;10.436;2023-04-20T05:05:53;101420.03;;;8.61;100.00
77626;BME280;66794;43.764;10.436;2023-04-20T05:08:19;101423.97;;;8.77;100.00
77626;BME280;66794;43.764;10.436;2023-04-20T05:10:45;101425.66;;;9.05;100.00
77626;BME280;66794;43.764;10.436;2023-04-20T05:13:10;101429.53;;;9.03;100.00
77626;BME280;66794;43.764;10.436;2023-04-20T05:15:36;101422.59;;;9.18;100.00
77626;BME280;66794;43.764;10.436;2023-04-20T05:18:01;101422.66;;;9.36;100.00
77626;BME280;66794;43.764;10.436;2023-04-20T05:20:27;101428.69;;;9.30;100.00
77626;BME280;66794;43.764;10.436;2023-04-20T05:22:52;101430.78;;;9.36;100.00
77626;BME280;66794;43.764;10.436;2023-04-20T05:25:17;101420.81;;;9.36;100.00
77626;BME280;66794;43.764;10.436;2023-04-20T05:27:42;101423.34;;;9.38;100.00
77626;BME280;66794;43.764;10.436;2023-04-20T05:30:08;101419.97;;;9.54;100.00
77626;BME280;66794;43.764;10.436;2023-04-20T05:32:33;101425.06;;;9.57;100.00
77626;BME280;66794;43.764;10.436;2023-04-20T05:34:58;101423.53;;;9.54;100.00
77626;BME280;66794;43.764;10.436;2023-04-20T05:37:24;101420.59;;;9.65;100.00
77626;BME280;66794;43.764;10.436;2023-04-20T05:39:51;101420.91;;;9.62;100.00
77626;BME280;66794;43.764;10.436;2023-04-20T05:42:16;101419.13;;;9.71;100.00
77626;BME280;66794;43.764;10.436;2023-04-20T05:44:42;101416.03;;;10.01;100.00
77626;BME280;66794;43.764;10.436;2023-04-20T05:47:08;101426.06;;;10.27;100.00
77626;BME280;66794;43.764;10.436;2023-04-20T05:49:33;101422.09;;;10.39;100.00
77626;BME280;66794;43.764;10.436;2023-04-20T05:51:59;101424.47;;;10.42;100.00
77626;BME280;66794;43.764;10.436;2023-04-20T05:54:25;101426.66;;;10.65;100.00
77626;BME280;66794;43.764;10.436;2023-04-20T05:56:52;101431.28;;;10.72;100.00
77626;BME280;66794;43.764;10.436;2023-04-20T05:59:17;101434.75;;;10.91;100.00
77626;BME280;66794;43.764;10.436;2023-04-20T06:01:43;101422.03;;;11.25;100.00
77626;BME280;66794;43.764;10.436;2023-04-20T06:04:08;101414.91;;;11.24;100.00
77626;BME280;66794;43.764;10.436;2023-04-20T06:06:34;101420.38;;;11.41;100.00
77626;BME280;66794;43.764;10.436;2023-04-20T06:08:59;101417.22;;;11.70;100.00
77626;BME280;66794;43.764;10.436;2023-04-20T06:11:25;101422.03;;;11.92;100.00
77626;BME280;66794;43.764;10.436;2023-04-20T06:13:50;101420.50;;;12.22;100.00
77626;BME280;66794;43.764;10.436;2023-04-20T06:16:15;101421.16;;;12.32;100.00
77626;BME280;66794;43.764;10.436;2023-04-20T06:18:41;101419.44;;;12.48;100.00
77626;BME280;66794;43.764;10.436;2023-04-20T06:21:08;101424.53;;;12.59;100.00
77626;BME280;66794;43.764;10.436;2023-04-20T06:23:33;101429.59;;;12.78;100.00
77626;BME280;66794;43.764;10.436;2023-04-20T06:25:59;101429.88;;;12.92;100.00
77626;BME280;66794;43.764;10.436;2023-04-20T06:28:24;101436.13;;;13.00;100.00
77626;BME280;66794;43.764;10.436;2023-04-20T06:30:49;101425.72;;;13.12;100.00
77626;BME280;66794;43.764;10.436;2023-04-20T06:33:15;101431.16;;;13.12;100.00
77626;BME280;66794;43.764;10.436;2023-04-20T06:35:41;101423.22;;;13.41;100.00
77626;BME280;66794;43.764;10.436;2023-04-20T06:38:07;101429.78;;;13.24;100.00
77626;BME280;66794;43.764;10.436;2023-04-20T06:40:32;101439.16;;;13.22;100.00
77626;BME280;66794;43.764;10.436;2023-04-20T06:42:58;101438.13;;;13.23;100.00
77626;BME280;66794;43.764;10.436;2023-04-20T06:45:23;101436.50;;;13.36;100.00
77626;BME280;66794;43.764;10.436;2023-04-20T06:47:48;101434.69;;;13.29;100.00
77626;BME280;66794;43.764;10.436;2023-04-20T06:50:14;101437.56;;;13.58;100.00
77626;BME280;66794;43.764;10.436;2023-04-20T06:52:39;101438.94;;;13.85;100.00
77626;BME280;66794;43.764;10.436;2023-04-20T06:55:05;101441.19;;;13.82;100.00
77626;BME280;66794;43.764;10.436;2023-04-20T06:57:31;101436.69;;;13.89;100.00
77626;BME280;66794;43.764;10.436;2023-04-20T06:59:56;101379.97;;;13.55;100.00
77626;BME280;66794;43.764;10.436;2023-04-20T07:02:23;101437.41;;;14.06;100.00
77626;BME280;66794;43.764;10.436;2023-04-20T07:04:48;101435.94;;;14.41;100.00
77626;BME280;66794;43.764;10.436;2023-04-20T07:07:14;101436.09;;;14.25;100.00
77626;BME280;66794;43.764;10.436;2023-04-20T07:09:39;101433.16;;;14.49;100.00
77626;BME280;66794;43.764;10.436;2023-04-20T07:12:04;101436.38;;;14.53;100.00
77626;BME280;66794;43.764;10.436;2023-04-20T07:14:30;101439.97;;;14.68;100.00
77626;BME280;66794;43.764;10.436;2023-04-20T07:16:55;101439.66;;;14.40;100.00
77626;BME280;66794;43.764;10.436;2023-04-20T07:19:20;101441.66;;;14.31;100.00
77626;BME280;66794;43.764;10.436;2023-04-20T07:21:45;101443.22;;;14.49;100.00
77626;BME280;66794;43.764;10.436;2023-04-20T07:24:11;101450.66;;;14.55;100.00
77626;BME280;66794;43.764;10.436;2023-04-20T07:26:36;101459.47;;;14.19;100.00
77626;BME280;66794;43.764;10.436;2023-04-20T07:29:01;101453.72;;;14.14;100.00
77626;BME280;66794;43.764;10.436;2023-04-20T07:31:27;101454.97;;;14.49;100.00
77626;BME280;66794;43.764;10.436;2023-04-20T07:33:52;101445.50;;;14.89;100.00
77626;BME280;66794;43.764;10.436;2023-04-20T07:36:18;101454.63;;;15.26;100.00
77626;BME280;66794;43.764;10.436;2023-04-20T07:38:44;101446.44;;;15.11;100.00
77626;BME280;66794;43.764;10.436;2023-04-20T07:41:09;101445.88;;;15.31;100.00
77626;BME280;66794;43.764;10.436;2023-04-20T07:43:35;101449.50;;;15.52;100.00
77626;BME280;66794;43.764;10.436;2023-04-20T07:46:01;101444.22;;;15.87;100.00
77626;BME280;66794;43.764;10.436;2023-04-20T07:48:26;101438.06;;;16.00;100.00
77626;BME280;66794;43.764;10.436;2023-04-20T07:50:51;101441.91;;;15.84;100.00
77626;BME280;66794;43.764;10.436;2023-04-20T07:53:17;101440.34;;;16.18;100.00
77626;BME280;66794;43.764;10.436;2023-04-20T07:55:42;101438.66;;;15.95;100.00
77626;BME280;66794;43.764;10.436;2023-04-20T07:58:07;101437.78;;;15.73;100.00
77626;BME280;66794;43.764;10.436;2023-04-20T08:00:33;101441.75;;;15.92;100.00
77626;BME280;66794;43.764;10.436;2023-04-20T08:02:58;101443.25;;;15.73;100.00
77626;BME280;66794;43.764;10.436;2023-04-20T08:05:24;101435.81;;;15.82;100.00
77626;BME280;66794;43.764;10.436;2023-04-20T08:07:49;101436.75;;;15.96;100.00
77626;BME280;66794;43.764;10.436;2023-04-20T08:10:15;101433.91;;;15.83;100.00
77626;BME280;66794;43.764;10.436;2023-04-20T08:12:40;101448.00;;;15.86;100.00
77626;BME280;66794;43.764;10.436;2023-04-20T08:15:06;101447.91;;;15.94;100.00
77626;BME280;66794;43.764;10.436;2023-04-20T08:17:32;101446.69;;;16.25;100.00
77626;BME280;66794;43.764;10.436;2023-04-20T08:19:57;101446.31;;;16.07;100.00
77626;BME280;66794;43.764;10.436;2023-04-20T08:22:23;101448.84;;;16.29;100.00
77626;BME280;66794;43.764;10.436;2023-04-20T08:24:51;101444.44;;;16.28;100.00
77626;BME280;66794;43.764;10.436;2023-04-20T08:27:17;101439.31;;;16.47;100.00
77626;BME280;66794;43.764;10.436;2023-04-20T08:29:42;101440.69;;;16.86;100.00
77626;BME280;66794;43.764;10.436;2023-04-20T08:32:07;101436.13;;;16.99;98.44
77626;BME280;66794;43.764;10.436;2023-04-20T08:34:33;101441.72;;;16.85;96.53
77626;BME280;66794;43.764;10.436;2023-04-20T08:36:59;101434.13;;;17.15;95.06
77626;BME280;66794;43.764;10.436;2023-04-20T08:39:24;101434.47;;;17.53;93.89
77626;BME280;66794;43.764;10.436;2023-04-20T08:41:50;101436.59;;;17.51;89.77
77626;BME280;66794;43.764;10.436;2023-04-20T08:44:19;101434.38;;;17.81;89.25
77626;BME280;66794;43.764;10.436;2023-04-20T08:46:46;101430.31;;;17.70;87.35
77626;BME280;66794;43.764;10.436;2023-04-20T08:49:11;101428.50;;;17.91;86.37
77626;BME280;66794;43.764;10.436;2023-04-20T08:51:38;101394.06;;;17.68;84.94
77626;BME280;66794;43.764;10.436;2023-04-20T08:54:04;101434.81;;;17.98;85.59
77626;BME280;66794;43.764;10.436;2023-04-20T08:56:33;101434.22;;;18.16;84.13
77626;BME280;66794;43.764;10.436;2023-04-20T08:58:59;101430.22;;;18.45;84.33
77626;BME280;66794;43.764;10.436;2023-04-20T09:01:27;101433.53;;;17.94;80.12
77626;BME280;66794;43.764;10.436;2023-04-20T09:03:53;101432.31;;;18.69;79.82
77626;BME280;66794;43.764;10.436;2023-04-20T09:06:18;101427.66;;;17.90;81.26
77626;BME280;66794;43.764;10.436;2023-04-20T09:08:44;101430.88;;;18.33;80.74
77626;BME280;66794;43.764;10.436;2023-04-20T09:11:22;101422.19;;;17.83;81.39
77626;BME280;66794;43.764;10.436;2023-04-20T09:14:00;101419.75;;;17.60;81.96
77626;BME280;66794;43.764;10.436;2023-04-20T09:16:26;101420.75;;;18.27;81.77
77626;BME280;66794;43.764;10.436;2023-04-20T09:18:52;101422.19;;;18.83;79.82
77626;BME280;66794;43.764;10.436;2023-04-20T09:21:18;101424.91;;;18.89;77.23
77626;BME280;66794;43.764;10.436;2023-04-20T09:23:43;101420.06;;;18.85;77.33
77626;BME280;66794;43.764;10.436;2023-04-20T09:26:19;101423.00;;;18.90;78.10
77626;BME280;66794;43.764;10.436;2023-04-20T09:28:45;101428.84;;;19.13;74.96
77626;BME280;66794;43.764;10.436;2023-04-20T09:31:19;101424.75;;;18.71;75.16
77626;BME280;66794;43.764;10.436;2023-04-20T09:33:54;101426.84;;;18.69;76.03
77626;BME280;66794;43.764;10.436;2023-04-20T09:36:19;101423.41;;;19.00;72.95
77626;BME280;66794;43.764;10.436;2023-04-20T09:38:45;101427.41;;;19.04;71.59
77626;BME280;66794;43.764;10.436;2023-04-20T09:41:10;101416.38;;;19.17;72.48
77626;BME280;66794;43.764;10.436;2023-04-20T09:43:36;101414.66;;;19.68;72.11
77626;BME280;66794;43.764;10.436;2023-04-20T09:46:02;101406.88;;;19.65;71.46
77626;BME280;66794;43.764;10.436;2023-04-20T09:48:28;101412.06;;;20.11;69.22
77626;BME280;66794;43.764;10.436;2023-04-20T09:50:53;101414.38;;;20.14;66.72
77626;BME280;66794;43.764;10.436;2023-04-20T09:53:19;101406.19;;;19.76;68.95
77626;BME280;66794;43.764;10.436;2023-04-20T09:55:45;101413.31;;;19.39;69.59
77626;BME280;66794;43.764;10.436;2023-04-20T09:58:11;101413.81;;;19.23;68.95
77626;BME280;66794;43.764;10.436;2023-04-20T10:00:37;101416.94;;;19.33;70.73
77626;BME280;66794;43.764;10.436;2023-04-20T10:03:02;101412.75;;;19.24;72.02
77626;BME280;66794;43.764;10.436;2023-04-20T10:05:32;101410.97;;;18.98;71.96
77626;BME280;66794;43.764;10.436;2023-04-20T10:07:58;101416.63;;;19.09;71.44
77626;BME280;66794;43.764;10.436;2023-04-20T10:10:24;101415.78;;;19.02;71.36
77626;BME280;66794;43.764;10.436;2023-04-20T10:12:54;101414.94;;;19.08;71.51
77626;BME280;66794;43.764;10.436;2023-04-20T10:15:19;101409.59;;;19.27;71.93
77626;BME280;66794;43.764;10.436;2023-04-20T10:17:48;101407.63;;;19.79;71.67
77626;BME280;66794;43.764;10.436;2023-04-20T10:20:32;101411.00;;;19.42;71.68
77626;BME280;66794;43.764;10.436;2023-04-20T10:23:07;101415.66;;;18.71;72.70
77626;BME280;66794;43.764;10.436;2023-04-20T10:25:33;101410.75;;;18.99;72.61
77626;BME280;66794;43.764;10.436;2023-04-20T10:28:00;101413.94;;;18.63;73.90
77626;BME280;66794;43.764;10.436;2023-04-20T10:30:30;101401.94;;;18.51;74.79
77626;BME280;66794;43.764;10.436;2023-04-20T10:33:09;101404.47;;;18.46;75.00
77626;BME280;66794;43.764;10.436;2023-04-20T10:38:13;101403.66;;;18.19;77.66
77626;BME280;66794;43.764;10.436;2023-04-20T10:40:38;101397.91;;;17.87;85.69
77626;BME280;66794;43.764;10.436;2023-04-20T10:43:16;101389.69;;;17.87;85.36
77626;BME280;66794;43.764;10.436;2023-04-20T10:45:41;101390.50;;;17.68;86.25
77626;BME280;66794;43.764;10.436;2023-04-20T10:48:10;101393.06;;;17.76;86.65
77626;BME280;66794;43.764;10.436;2023-04-20T10:50:35;101386.34;;;17.85;85.03
77626;BME280;66794;43.764;10.436;2023-04-20T10:53:01;101388.03;;;17.99;83.46
77626;BME280;66794;43.764;10.436;2023-04-20T10:55:26;101381.94;;;18.17;80.73
77626;BME280;66794;43.764;10.436;2023-04-20T10:57:52;101370.72;;;18.52;81.08
77626;BME280;66794;43.764;10.436;2023-04-20T11:00:19;101368.81;;;18.72;82.64
77626;BME280;66794;43.764;10.436;2023-04-20T11:02:54;101360.84;;;18.18;82.25
77626;BME280;66794;43.764;10.436;2023-04-20T11:05:23;101359.38;;;18.28;81.56
77626;BME280;66794;43.764;10.436;2023-04-20T11:07:56;101358.91;;;18.31;81.88
77626;BME280;66794;43.764;10.436;2023-04-20T11:10:43;101362.31;;;18.20;87.55
77626;BME280;66794;43.764;10.436;2023-04-20T11:13:28;101355.78;;;17.95;90.12
77626;BME280;66794;43.764;10.436;2023-04-20T11:15:55;101357.69;;;17.94;92.88
77626;BME280;66794;43.764;10.436;2023-04-20T11:18:20;101361.06;;;17.96;93.77
77626;BME280;66794;43.764;10.436;2023-04-20T11:20:52;101353.66;;;18.30;92.10
77626;BME280;66794;43.764;10.436;2023-04-20T11:23:19;101318.56;;;18.58;89.45
77626;BME280;66794;43.764;10.436;2023-04-20T11:25:54;101346.81;;;18.85;85.59
77626;BME280;66794;43.764;10.436;2023-04-20T11:28:20;101343.56;;;19.47;85.46
77626;BME280;66794;43.764;10.436;2023-04-20T11:30:46;101343.19;;;18.91;83.63
77626;BME280;66794;43.764;10.436;2023-04-20T11:33:13;101342.34;;;18.98;85.32
77626;BME280;66794;43.764;10.436;2023-04-20T11:35:40;101338.69;;;19.10;84.94
77626;BME280;66794;43.764;10.436;2023-04-20T11:38:06;101340.13;;;18.55;84.26
77626;BME280;66794;43.764;10.436;2023-04-20T11:40:32;101345.63;;;18.42;84.78
77626;BME280;66794;43.764;10.436;2023-04-20T11:42:57;101341.13;;;18.80;81.45
77626;BME280;66794;43.764;10.436;2023-04-20T11:45:24;101337.66;;;19.43;79.69
77626;BME280;66794;43.764;10.436;2023-04-20T11:47:49;101331.34;;;19.42;78.38
77626;BME280;66794;43.764;10.436;2023-04-20T11:50:17;101324.44;;;19.27;78.45
77626;BME280;66794;43.764;10.436;2023-04-20T11:52:43;101325.75;;;19.17;79.47
77626;BME280;66794;43.764;10.436;2023-04-20T11:55:08;101322.19;;;19.17;79.14
77626;BME280;66794;43.764;10.436;2023-04-20T11:57:34;101318.25;;;19.00;81.85
77626;BME280;66794;43.764;10.436;2023-04-20T12:00:00;101328.22;;;18.81;82.35
77626;BME280;66794;43.764;10.436;2023-04-20T12:02:25;101323.31;;;18.96;80.43
77626;BME280;66794;43.764;10.436;2023-04-20T12:04:50;101316.63;;;18.85;80.25
77626;BME280;66794;43.764;10.436;2023-04-20T12:07:16;101314.25;;;18.96;79.62
77626;BME280;66794;43.764;10.436;2023-04-20T12:09:42;101306.13;;;19.84;76.67
77626;BME280;66794;43.764;10.436;2023-04-20T12:12:08;101307.09;;;19.96;78.83
77626;BME280;66794;43.764;10.436;2023-04-20T12:14:33;101306.88;;;19.34;77.03
77626;BME280;66794;43.764;10.436;2023-04-20T12:16:59;101311.16;;;19.55;77.85
77626;BME280;66794;43.764;10.436;2023-04-20T12:19:25;101309.41;;;19.36;78.40
77626;BME280;66794;43.764;10.436;2023-04-20T12:21:50;101306.97;;;19.53;81.60
77626;BME280;66794;43.764;10.436;2023-04-20T12:24:16;101309.69;;;19.59;82.33
77626;BME280;66794;43.764;10.436;2023-04-20T12:26:41;101309.84;;;19.33;81.46
77626;BME280;66794;43.764;10.436;2023-04-20T12:29:06;101303.63;;;19.12;84.62
77626;BME280;66794;43.764;10.436;2023-04-20T12:31:32;101317.72;;;18.78;87.35